sensor_id;sensor_type;location;lat;lon;timestamp;P1;durP1;ratioP1;P2;durP2;ratioP2
10248;SDS011;5169;50.560;9.714;2024-03-08T00:01:20;187.27;;;53.30;;
10248;SDS011;5169;50.560;9.714;2024-03-08T00:03:51;191.37;;;53.20;;
10248;SDS011;5169;50.560;9.714;2024-03-08T00:06:17;182.83;;;51.67;;
10248;SDS011;5169;50.560;9.714;2024-03-08T00:08:44;192.90;;;53.33;;
10248;SDS011;5169;50.560;9.714;2024-03-08T00:11:10;185.93;;;52.17;;
10248;SDS011;5169;50.560;9.714;2024-03-08T00:13:36;189.23;;;52.77;;
10248;SDS011;5169;50.560;9.714;2024-03-08T00:16:04;186.17;;;52.37;;
10248;SDS011;5169;50.560;9.714;2024-03-08T00:18:29;190.13;;;52.93;;
10248;SDS011;5169;50.560;9.714;2024-03-08T00:20:57;191.60;;;52.50;;
10248;SDS011;5169;50.560;9.714;2024-03-08T00:23:25;188.27;;;52.10;;
10248;SDS011;5169;50.560;9.714;2024-03-08T00:25:53;194.30;;;53.03;;
10248;SDS011;5169;50.560;9.714;2024-03-08T00:28:19;190.57;;;52.67;;
10248;SDS011;5169;50.560;9.714;2024-03-08T00:30:45;195.40;;;53.77;;
10248;SDS011;5169;50.560;9.714;2024-03-08T00:33:14;197.07;;;53.97;;
10248;SDS011;5169;50.560;9.714;2024-03-08T00:35:39;193.40;;;53.03;;
10248;SDS011;5169;50.560;9.714;2024-03-08T00:38:08;193.90;;;53.27;;
10248;SDS011;5169;50.560;9.714;2024-03-08T00:40:33;190.77;;;53.87;;
10248;SDS011;5169;50.560;9.714;2024-03-08T00:42:59;193.73;;;53.40;;
10248;SDS011;5169;50.560;9.714;2024-03-08T00:45:28;190.00;;;52.77;;
10248;SDS011;5169;50.560;9.714;2024-03-08T00:47:54;190.43;;;52.40;;
10248;SDS011;5169;50.560;9.714;2024-03-08T00:50:22;187.73;;;52.57;;
10248;SDS011;5169;50.560;9.714;2024-03-08T00:52:48;191.00;;;52.93;;
10248;SDS011;5169;50.560;9.714;2024-03-08T00:55:13;192.47;;;52.83;;
10248;SDS011;5169;50.560;9.714;2024-03-08T00:57:39;198.53;;;54.03;;
10248;SDS011;5169;50.560;9.714;2024-03-08T01:00:06;187.10;;;52.30;;
10248;SDS011;5169;50.560;9.714;2024-03-08T01:02:35;187.63;;;53.07;;
10248;SDS011;5169;50.560;9.714;2024-03-08T01:05:01;195.30;;;53.80;;
10248;SDS011;5169;50.560;9.714;2024-03-08T01:07:27;191.23;;;53.50;;
10248;SDS011;5169;50.560;9.714;2024-03-08T01:09:55;191.83;;;53.77;;
10248;SDS011;5169;50.560;9.714;2024-03-08T01:12:23;192.63;;;53.50;;
10248;SDS011;5169;50.560;9.714;2024-03-08T01:14:48;191.50;;;53.17;;
10248;SDS011;5169;50.560;9.714;2024-03-08T01:17:14;194.83;;;53.50;;
10248;SDS011;5169;50.560;9.714;2024-03-08T01:19:39;193.10;;;53.10;;
10248;SDS011;5169;50.560;9.714;2024-03-08T01:22:05;185.63;;;52.57;;
10248;SDS011;5169;50.560;9.714;2024-03-08T01:24:33;184.70;;;52.17;;
10248;SDS011;5169;50.560;9.714;2024-03-08T01:27:03;187.67;;;52.33;;
10248;SDS011;5169;50.560;9.714;2024-03-08T01:29:32;184.00;;;51.73;;
10248;SDS011;5169;50.560;9.714;2024-03-08T01:31:58;184.90;;;52.23;;
10248;SDS011;5169;50.560;9.714;2024-03-08T01:34:26;185.07;;;52.03;;
10248;SDS011;5169;50.560;9.714;2024-03-08T01:36:53;183.50;;;51.60;;
10248;SDS011;5169;50.560;9.714;2024-03-08T01:39:21;182.00;;;51.83;;
10248;SDS011;5169;50.560;9.714;2024-03-08T01:41:47;180.03;;;52.00;;
10248;SDS011;5169;50.560;9.714;2024-03-08T01:44:13;183.20;;;52.00;;
10248;SDS011;5169;50.560;9.714;2024-03-08T01:46:42;184.77;;;52.63;;
10248;SDS011;5169;50.560;9.714;2024-03-08T01:49:12;183.60;;;52.70;;
10248;SDS011;5169;50.560;9.714;2024-03-08T01:51:38;183.43;;;52.90;;
10248;SDS011;5169;50.560;9.714;2024-03-08T01:54:06;185.23;;;52.87;;
10248;SDS011;5169;50.560;9.714;2024-03-08T01:56:34;185.33;;;52.70;;
10248;SDS011;5169;50.560;9.714;2024-03-08T01:59:01;190.50;;;53.90;;
10248;SDS011;5169;50.560;9.714;2024-03-08T02:01:28;191.90;;;53.50;;
10248;SDS011;5169;50.560;9.714;2024-03-08T02:03:53;183.23;;;52.40;;
10248;SDS011;5169;50.560;9.714;2024-03-08T02:06:21;184.93;;;52.17;;
10248;SDS011;5169;50.560;9.714;2024-03-08T02:08:47;183.83;;;52.33;;
10248;SDS011;5169;50.560;9.714;2024-03-08T02:11:13;180.50;;;51.97;;
10248;SDS011;5169;50.560;9.714;2024-03-08T02:13:42;185.17;;;52.30;;
10248;SDS011;5169;50.560;9.714;2024-03-08T02:16:08;182.30;;;52.10;;
10248;SDS011;5169;50.560;9.714;2024-03-08T02:18:33;180.47;;;52.50;;
10248;SDS011;5169;50.560;9.714;2024-03-08T02:20:59;178.27;;;51.83;;
10248;SDS011;5169;50.560;9.714;2024-03-08T02:23:27;181.37;;;52.43;;
10248;SDS011;5169;50.560;9.714;2024-03-08T02:25:56;185.47;;;52.57;;
10248;SDS011;5169;50.560;9.714;2024-03-08T02:28:22;182.60;;;52.47;;
10248;SDS011;5169;50.560;9.714;2024-03-08T02:30:49;182.43;;;52.73;;
10248;SDS011;5169;50.560;9.714;2024-03-08T02:33:15;181.50;;;52.10;;
10248;SDS011;5169;50.560;9.714;2024-03-08T02:35:44;182.23;;;52.37;;
10248;SDS011;5169;50.560;9.714;2024-03-08T02:38:14;184.90;;;52.33;;
10248;SDS011;5169;50.560;9.714;2024-03-08T02:40:41;192.73;;;53.30;;
10248;SDS011;5169;50.560;9.714;2024-03-08T02:43:14;184.87;;;52.83;;
10248;SDS011;5169;50.560;9.714;2024-03-08T02:45:43;183.40;;;52.53;;
10248;SDS011;5169;50.560;9.714;2024-03-08T02:48:10;188.03;;;53.80;;
10248;SDS011;5169;50.560;9.714;2024-03-08T02:50:40;186.63;;;52.73;;
10248;SDS011;5169;50.560;9.714;2024-03-08T02:53:09;190.80;;;53.73;;
10248;SDS011;5169;50.560;9.714;2024-03-08T02:55:36;191.53;;;53.50;;
10248;SDS011;5169;50.560;9.714;2024-03-08T02:58:02;184.33;;;52.63;;
10248;SDS011;5169;50.560;9.714;2024-03-08T03:00:28;179.87;;;51.83;;
10248;SDS011;5169;50.560;9.714;2024-03-08T03:02:56;192.37;;;53.73;;
10248;SDS011;5169;50.560;9.714;2024-03-08T03:05:22;196.03;;;54.27;;
10248;SDS011;5169;50.560;9.714;2024-03-08T03:07:48;190.03;;;53.10;;
10248;SDS011;5169;50.560;9.714;2024-03-08T03:10:16;191.60;;;54.13;;
10248;SDS011;5169;50.560;9.714;2024-03-08T03:12:42;187.73;;;53.03;;
10248;SDS011;5169;50.560;9.714;2024-03-08T03:15:08;188.63;;;52.87;;
10248;SDS011;5169;50.560;9.714;2024-03-08T03:17:35;191.43;;;53.53;;
10248;SDS011;5169;50.560;9.714;2024-03-08T03:20:00;188.20;;;52.57;;
10248;SDS011;5169;50.560;9.714;2024-03-08T03:22:34;184.73;;;51.87;;
10248;SDS011;5169;50.560;9.714;2024-03-08T03:24:59;191.70;;;53.53;;
10248;SDS011;5169;50.560;9.714;2024-03-08T03:27:29;193.50;;;53.97;;
10248;SDS011;5169;50.560;9.714;2024-03-08T03:29:55;185.03;;;52.50;;
10248;SDS011;5169;50.560;9.714;2024-03-08T03:32:22;190.53;;;52.80;;
10248;SDS011;5169;50.560;9.714;2024-03-08T03:34:48;194.17;;;53.73;;
10248;SDS011;5169;50.560;9.714;2024-03-08T03:37:17;198.77;;;54.63;;
10248;SDS011;5169;50.560;9.714;2024-03-08T03:39:44;196.73;;;53.83;;
10248;SDS011;5169;50.560;9.714;2024-03-08T03:42:17;197.33;;;53.77;;
10248;SDS011;5169;50.560;9.714;2024-03-08T03:44:46;193.47;;;52.73;;
10248;SDS011;5169;50.560;9.714;2024-03-08T03:47:13;187.13;;;52.30;;
10248;SDS011;5169;50.560;9.714;2024-03-08T03:49:39;186.50;;;51.77;;
10248;SDS011;5169;50.560;9.714;2024-03-08T03:52:05;190.77;;;52.13;;
10248;SDS011;5169;50.560;9.714;2024-03-08T03:54:31;179.37;;;50.93;;
10248;SDS011;5169;50.560;9.714;2024-03-08T03:56:57;184.57;;;51.27;;
10248;SDS011;5169;50.560;9.714;2024-03-08T03:59:23;184.00;;;51.07;;
10248;SDS011;5169;50.560;9.714;2024-03-08T04:01:49;180.53;;;51.27;;
10248;SDS011;5169;50.560;9.714;2024-03-08T04:04:15;188.33;;;52.53;;
10248;SDS011;5169;50.560;9.714;2024-03-08T04:06:41;188.33;;;53.00;;
10248;SDS011;5169;50.560;9.714;2024-03-08T04:09:07;186.83;;;53.17;;
10248;SDS011;5169;50.560;9.714;2024-03-08T04:11:32;187.03;;;52.77;;
10248;SDS011;5169;50.560;9.714;2024-03-08T04:13:58;191.60;;;54.00;;
10248;SDS011;5169;50.560;9.714;2024-03-08T04:16:24;193.00;;;53.33;;
10248;SDS011;5169;50.560;9.714;2024-03-08T04:18:50;193.47;;;54.13;;
10248;SDS011;5169;50.560;9.714;2024-03-08T04:21:19;189.23;;;53.03;;
10248;SDS011;5169;50.560;9.714;2024-03-08T04:23:44;190.03;;;52.80;;
10248;SDS011;5169;50.560;9.714;2024-03-08T04:26:12;186.13;;;52.10;;
10248;SDS011;5169;50.560;9.714;2024-03-08T04:28:38;179.70;;;51.07;;
10248;SDS011;5169;50.560;9.714;2024-03-08T04:31:04;188.67;;;51.53;;
10248;SDS011;5169;50.560;9.714;2024-03-08T04:33:30;178.50;;;51.30;;
10248;SDS011;5169;50.560;9.714;2024-03-08T04:36:00;178.27;;;50.30;;
10248;SDS011;5169;50.560;9.714;2024-03-08T04:38:26;184.13;;;51.60;;
10248;SDS011;5169;50.560;9.714;2024-03-08T04:40:51;179.57;;;51.07;;
10248;SDS011;5169;50.560;9.714;2024-03-08T04:43:17;184.93;;;51.77;;
10248;SDS011;5169;50.560;9.714;2024-03-08T04:45:43;178.50;;;50.73;;
10248;SDS011;5169;50.560;9.714;2024-03-08T04:48:09;183.33;;;51.30;;
10248;SDS011;5169;50.560;9.714;2024-03-08T04:50:36;180.93;;;51.43;;
10248;SDS011;5169;50.560;9.714;2024-03-08T04:53:03;192.30;;;53.27;;
10248;SDS011;5169;50.560;9.714;2024-03-08T04:55:29;197.00;;;54.07;;
10248;SDS011;5169;50.560;9.714;2024-03-08T04:57:57;191.47;;;53.17;;
10248;SDS011;5169;50.560;9.714;2024-03-08T05:00:22;195.23;;;52.90;;
10248;SDS011;5169;50.560;9.714;2024-03-08T05:02:50;195.83;;;53.50;;
10248;SDS011;5169;50.560;9.714;2024-03-08T05:05:18;197.07;;;53.40;;
10248;SDS011;5169;50.560;9.714;2024-03-08T05:07:44;198.67;;;53.87;;
10248;SDS011;5169;50.560;9.714;2024-03-08T05:10:10;198.73;;;55.23;;
10248;SDS011;5169;50.560;9.714;2024-03-08T05:12:36;198.30;;;53.77;;
10248;SDS011;5169;50.560;9.714;2024-03-08T05:15:04;197.30;;;53.70;;
10248;SDS011;5169;50.560;9.714;2024-03-08T05:17:30;203.07;;;55.30;;
10248;SDS011;5169;50.560;9.714;2024-03-08T05:19:56;201.90;;;55.67;;
10248;SDS011;5169;50.560;9.714;2024-03-08T05:22:21;204.40;;;55.40;;
10248;SDS011;5169;50.560;9.714;2024-03-08T05:24:51;197.47;;;54.00;;
10248;SDS011;5169;50.560;9.714;2024-03-08T05:27:16;200.93;;;55.07;;
10248;SDS011;5169;50.560;9.714;2024-03-08T05:29:44;204.70;;;56.27;;
10248;SDS011;5169;50.560;9.714;2024-03-08T05:32:11;197.20;;;54.50;;
10248;SDS011;5169;50.560;9.714;2024-03-08T05:34:37;198.50;;;54.57;;
10248;SDS011;5169;50.560;9.714;2024-03-08T05:37:02;202.77;;;54.67;;
10248;SDS011;5169;50.560;9.714;2024-03-08T05:39:28;203.17;;;54.93;;
10248;SDS011;5169;50.560;9.714;2024-03-08T05:41:54;194.97;;;53.93;;
10248;SDS011;5169;50.560;9.714;2024-03-08T05:44:20;201.77;;;54.50;;
10248;SDS011;5169;50.560;9.714;2024-03-08T05:46:48;196.60;;;53.57;;
10248;SDS011;5169;50.560;9.714;2024-03-08T05:49:14;220.13;;;57.60;;
10248;SDS011;5169;50.560;9.714;2024-03-08T05:51:42;216.20;;;57.47;;
10248;SDS011;5169;50.560;9.714;2024-03-08T05:54:10;219.33;;;58.80;;
10248;SDS011;5169;50.560;9.714;2024-03-08T05:56:42;220.27;;;59.20;;
10248;SDS011;5169;50.560;9.714;2024-03-08T05:59:10;218.90;;;58.87;;
10248;SDS011;5169;50.560;9.714;2024-03-08T06:01:39;215.20;;;57.33;;
10248;SDS011;5169;50.560;9.714;2024-03-08T06:04:06;222.97;;;59.60;;
10248;SDS011;5169;50.560;9.714;2024-03-08T06:06:32;223.43;;;59.17;;
10248;SDS011;5169;50.560;9.714;2024-03-08T06:09:02;222.07;;;58.80;;
10248;SDS011;5169;50.560;9.714;2024-03-08T06:11:34;219.23;;;58.77;;
10248;SDS011;5169;50.560;9.714;2024-03-08T06:13:59;220.60;;;58.17;;
10248;SDS011;5169;50.560;9.714;2024-03-08T06:16:26;220.37;;;58.70;;
10248;SDS011;5169;50.560;9.714;2024-03-08T06:18:54;218.43;;;58.87;;
10248;SDS011;5169;50.560;9.714;2024-03-08T06:21:26;223.23;;;59.87;;
10248;SDS011;5169;50.560;9.714;2024-03-08T06:23:54;219.77;;;58.30;;
10248;SDS011;5169;50.560;9.714;2024-03-08T06:26:26;221.97;;;58.10;;
10248;SDS011;5169;50.560;9.714;2024-03-08T06:28:57;219.63;;;57.70;;
10248;SDS011;5169;50.560;9.714;2024-03-08T06:31:23;223.00;;;59.10;;
10248;SDS011;5169;50.560;9.714;2024-03-08T06:33:49;223.50;;;59.33;;
10248;SDS011;5169;50.560;9.714;2024-03-08T06:36:18;224.87;;;59.80;;
10248;SDS011;5169;50.560;9.714;2024-03-08T06:38:46;223.07;;;58.80;;
10248;SDS011;5169;50.560;9.714;2024-03-08T06:41:14;223.73;;;59.17;;
10248;SDS011;5169;50.560;9.714;2024-03-08T06:43:43;222.77;;;59.97;;
10248;SDS011;5169;50.560;9.714;2024-03-08T06:46:10;224.73;;;59.30;;
10248;SDS011;5169;50.560;9.714;2024-03-08T06:48:39;227.43;;;59.57;;
10248;SDS011;5169;50.560;9.714;2024-03-08T06:51:05;227.23;;;59.13;;
10248;SDS011;5169;50.560;9.714;2024-03-08T06:53:31;226.93;;;59.20;;
10248;SDS011;5169;50.560;9.714;2024-03-08T06:56:00;228.13;;;59.13;;
10248;SDS011;5169;50.560;9.714;2024-03-08T06:58:27;228.50;;;58.97;;
10248;SDS011;5169;50.560;9.714;2024-03-08T07:00:53;229.70;;;58.67;;
10248;SDS011;5169;50.560;9.714;2024-03-08T07:03:18;233.43;;;59.60;;
10248;SDS011;5169;50.560;9.714;2024-03-08T07:05:47;238.37;;;59.37;;
10248;SDS011;5169;50.560;9.714;2024-03-08T07:08:12;246.67;;;60.83;;
10248;SDS011;5169;50.560;9.714;2024-03-08T07:10:41;239.37;;;60.00;;
10248;SDS011;5169;50.560;9.714;2024-03-08T07:13:07;242.67;;;60.87;;
10248;SDS011;5169;50.560;9.714;2024-03-08T07:15:36;245.63;;;61.43;;
10248;SDS011;5169;50.560;9.714;2024-03-08T07:18:04;242.47;;;59.27;;
10248;SDS011;5169;50.560;9.714;2024-03-08T07:20:30;242.43;;;59.03;;
10248;SDS011;5169;50.560;9.714;2024-03-08T07:22:56;239.33;;;59.50;;
10248;SDS011;5169;50.560;9.714;2024-03-08T07:25:22;240.20;;;58.93;;
10248;SDS011;5169;50.560;9.714;2024-03-08T07:27:48;241.80;;;59.53;;
10248;SDS011;5169;50.560;9.714;2024-03-08T07:30:24;241.50;;;60.13;;
10248;SDS011;5169;50.560;9.714;2024-03-08T07:33:10;242.70;;;59.33;;
10248;SDS011;5169;50.560;9.714;2024-03-08T07:35:39;242.93;;;60.20;;
10248;SDS011;5169;50.560;9.714;2024-03-08T07:38:09;240.67;;;58.53;;
10248;SDS011;5169;50.560;9.714;2024-03-08T07:40:38;244.10;;;60.20;;
10248;SDS011;5169;50.560;9.714;2024-03-08T07:43:06;243.57;;;59.60;;
10248;SDS011;5169;50.560;9.714;2024-03-08T07:45:32;244.33;;;59.67;;
10248;SDS011;5169;50.560;9.714;2024-03-08T07:48:00;243.73;;;58.80;;
10248;SDS011;5169;50.560;9.714;2024-03-08T07:50:27;241.77;;;58.60;;
10248;SDS011;5169;50.560;9.714;2024-03-08T07:52:57;248.13;;;59.67;;
10248;SDS011;5169;50.560;9.714;2024-03-08T07:55:23;250.53;;;59.83;;
10248;SDS011;5169;50.560;9.714;2024-03-08T07:57:49;251.80;;;60.33;;
10248;SDS011;5169;50.560;9.714;2024-03-08T08:00:19;257.13;;;61.23;;
10248;SDS011;5169;50.560;9.714;2024-03-08T08:02:49;259.03;;;61.60;;
10248;SDS011;5169;50.560;9.714;2024-03-08T08:05:16;261.07;;;60.83;;
10248;SDS011;5169;50.560;9.714;2024-03-08T08:07:46;266.20;;;62.47;;
10248;SDS011;5169;50.560;9.714;2024-03-08T08:10:12;267.33;;;61.50;;
10248;SDS011;5169;50.560;9.714;2024-03-08T08:12:47;261.13;;;61.30;;
10248;SDS011;5169;50.560;9.714;2024-03-08T08:15:14;262.37;;;60.90;;
10248;SDS011;5169;50.560;9.714;2024-03-08T08:17:40;259.80;;;60.03;;
10248;SDS011;5169;50.560;9.714;2024-03-08T08:20:10;263.03;;;61.10;;
10248;SDS011;5169;50.560;9.714;2024-03-08T08:22:39;261.43;;;59.83;;
10248;SDS011;5169;50.560;9.714;2024-03-08T08:25:08;264.33;;;61.83;;
10248;SDS011;5169;50.560;9.714;2024-03-08T08:27:38;266.30;;;63.00;;
10248;SDS011;5169;50.560;9.714;2024-03-08T08:30:05;265.67;;;62.07;;
10248;SDS011;5169;50.560;9.714;2024-03-08T08:32:37;267.80;;;60.30;;
10248;SDS011;5169;50.560;9.714;2024-03-08T08:35:04;271.53;;;63.47;;
10248;SDS011;5169;50.560;9.714;2024-03-08T08:37:38;271.27;;;63.03;;
10248;SDS011;5169;50.560;9.714;2024-03-08T08:40:04;274.73;;;62.23;;
10248;SDS011;5169;50.560;9.714;2024-03-08T08:42:34;281.73;;;65.47;;
10248;SDS011;5169;50.560;9.714;2024-03-08T08:45:01;278.80;;;63.93;;
10248;SDS011;5169;50.560;9.714;2024-03-08T08:47:28;284.80;;;64.67;;
10248;SDS011;5169;50.560;9.714;2024-03-08T08:49:54;284.93;;;65.93;;
10248;SDS011;5169;50.560;9.714;2024-03-08T08:52:22;281.43;;;63.23;;
10248;SDS011;5169;50.560;9.714;2024-03-08T08:54:48;283.90;;;66.53;;
10248;SDS011;5169;50.560;9.714;2024-03-08T08:57:14;281.37;;;64.30;;
10248;SDS011;5169;50.560;9.714;2024-03-08T08:59:43;279.93;;;63.40;;
10248;SDS011;5169;50.560;9.714;2024-03-08T09:02:08;286.83;;;67.07;;
10248;SDS011;5169;50.560;9.714;2024-03-08T09:04:34;280.07;;;62.43;;
10248;SDS011;5169;50.560;9.714;2024-03-08T09:07:03;279.07;;;63.37;;
10248;SDS011;5169;50.560;9.714;2024-03-08T09:09:31;274.60;;;60.83;;
10248;SDS011;5169;50.560;9.714;2024-03-08T09:11:57;279.53;;;64.20;;
10248;SDS011;5169;50.560;9.714;2024-03-08T09:14:27;280.73;;;64.87;;
10248;SDS011;5169;50.560;9.714;2024-03-08T09:16:53;283.60;;;65.93;;
10248;SDS011;5169;50.560;9.714;2024-03-08T09:19:19;275.57;;;62.30;;
10248;SDS011;5169;50.560;9.714;2024-03-08T09:21:44;279.33;;;63.67;;
10248;SDS011;5169;50.560;9.714;2024-03-08T09:24:12;279.27;;;65.00;;
10248;SDS011;5169;50.560;9.714;2024-03-08T09:26:41;274.07;;;62.30;;
10248;SDS011;5169;50.560;9.714;2024-03-08T09:29:10;279.13;;;65.60;;
10248;SDS011;5169;50.560;9.714;2024-03-08T09:31:38;281.60;;;65.87;;
10248;SDS011;5169;50.560;9.714;2024-03-08T09:34:04;274.90;;;62.03;;
10248;SDS011;5169;50.560;9.714;2024-03-08T09:36:32;278.90;;;64.17;;
10248;SDS011;5169;50.560;9.714;2024-03-08T09:38:58;273.37;;;60.93;;
10248;SDS011;5169;50.560;9.714;2024-03-08T09:41:24;272.10;;;62.07;;
10248;SDS011;5169;50.560;9.714;2024-03-08T09:43:49;276.43;;;64.60;;
10248;SDS011;5169;50.560;9.714;2024-03-08T09:46:15;275.83;;;61.83;;
10248;SDS011;5169;50.560;9.714;2024-03-08T09:48:44;298.30;;;71.60;;
10248;SDS011;5169;50.560;9.714;2024-03-08T09:51:14;285.37;;;65.30;;
10248;SDS011;5169;50.560;9.714;2024-03-08T09:53:41;276.20;;;61.83;;
10248;SDS011;5169;50.560;9.714;2024-03-08T09:56:07;275.83;;;63.47;;
10248;SDS011;5169;50.560;9.714;2024-03-08T09:58:37;281.00;;;63.77;;
10248;SDS011;5169;50.560;9.714;2024-03-08T10:01:21;283.30;;;64.53;;
10248;SDS011;5169;50.560;9.714;2024-03-08T10:03:47;282.33;;;65.80;;
10248;SDS011;5169;50.560;9.714;2024-03-08T10:06:15;280.83;;;62.50;;
10248;SDS011;5169;50.560;9.714;2024-03-08T10:08:43;287.70;;;66.10;;
10248;SDS011;5169;50.560;9.714;2024-03-08T10:11:10;295.13;;;67.63;;
10248;SDS011;5169;50.560;9.714;2024-03-08T10:13:37;295.23;;;66.53;;
10248;SDS011;5169;50.560;9.714;2024-03-08T10:16:06;298.97;;;66.43;;
10248;SDS011;5169;50.560;9.714;2024-03-08T10:18:33;290.47;;;65.43;;
10248;SDS011;5169;50.560;9.714;2024-03-08T10:21:02;292.63;;;67.70;;
10248;SDS011;5169;50.560;9.714;2024-03-08T10:23:32;294.17;;;66.07;;
10248;SDS011;5169;50.560;9.714;2024-03-08T10:26:08;300.30;;;69.90;;
10248;SDS011;5169;50.560;9.714;2024-03-08T10:28:39;305.27;;;70.00;;
10248;SDS011;5169;50.560;9.714;2024-03-08T10:31:09;297.67;;;68.17;;
10248;SDS011;5169;50.560;9.714;2024-03-08T10:33:37;305.27;;;69.57;;
10248;SDS011;5169;50.560;9.714;2024-03-08T10:36:06;308.53;;;70.10;;
10248;SDS011;5169;50.560;9.714;2024-03-08T10:38:39;316.53;;;75.47;;
10248;SDS011;5169;50.560;9.714;2024-03-08T10:41:12;320.17;;;76.77;;
10248;SDS011;5169;50.560;9.714;2024-03-08T10:48:58;321.33;;;78.00;;
10248;SDS011;5169;50.560;9.714;2024-03-08T10:51:31;324.37;;;78.67;;
10248;SDS011;5169;50.560;9.714;2024-03-08T10:53:59;327.27;;;81.33;;
10248;SDS011;5169;50.560;9.714;2024-03-08T10:56:28;336.40;;;88.00;;
10248;SDS011;5169;50.560;9.714;2024-03-08T10:58:54;348.90;;;99.17;;
10248;SDS011;5169;50.560;9.714;2024-03-08T11:01:20;344.17;;;99.17;;
10248;SDS011;5169;50.560;9.714;2024-03-08T11:03:47;349.90;;;103.23;;
10248;SDS011;5169;50.560;9.714;2024-03-08T11:06:18;348.20;;;100.50;;
10248;SDS011;5169;50.560;9.714;2024-03-08T11:08:56;360.30;;;116.67;;
10248;SDS011;5169;50.560;9.714;2024-03-08T11:11:27;349.80;;;101.93;;
10248;SDS011;5169;50.560;9.714;2024-03-08T11:13:57;348.43;;;100.63;;
10248;SDS011;5169;50.560;9.714;2024-03-08T11:18:59;349.30;;;101.90;;
10248;SDS011;5169;50.560;9.714;2024-03-08T11:21:32;339.93;;;89.50;;
10248;SDS011;5169;50.560;9.714;2024-03-08T11:24:12;344.63;;;94.63;;
10248;SDS011;5169;50.560;9.714;2024-03-08T11:26:38;346.23;;;99.67;;
10248;SDS011;5169;50.560;9.714;2024-03-08T11:32:08;345.30;;;97.87;;
10248;SDS011;5169;50.560;9.714;2024-03-08T11:34:51;343.53;;;95.23;;
10248;SDS011;5169;50.560;9.714;2024-03-08T11:37:20;346.57;;;97.87;;
10248;SDS011;5169;50.560;9.714;2024-03-08T11:39:53;347.80;;;98.23;;
10248;SDS011;5169;50.560;9.714;2024-03-08T11:42:23;345.47;;;99.73;;
10248;SDS011;5169;50.560;9.714;2024-03-08T11:44:51;358.87;;;113.40;;
10248;SDS011;5169;50.560;9.714;2024-03-08T11:47:18;351.13;;;104.77;;
10248;SDS011;5169;50.560;9.714;2024-03-08T11:49:46;346.67;;;98.57;;
10248;SDS011;5169;50.560;9.714;2024-03-08T11:52:13;351.83;;;102.57;;
10248;SDS011;5169;50.560;9.714;2024-03-08T11:54:43;351.50;;;104.77;;
10248;SDS011;5169;50.560;9.714;2024-03-08T11:57:24;349.93;;;101.20;;
10248;SDS011;5169;50.560;9.714;2024-03-08T11:59:50;348.77;;;101.03;;
10248;SDS011;5169;50.560;9.714;2024-03-08T12:02:22;347.10;;;100.67;;
10248;SDS011;5169;50.560;9.714;2024-03-08T12:04:55;347.37;;;100.47;;
10248;SDS011;5169;50.560;9.714;2024-03-08T12:07:25;346.70;;;101.17;;
10248;SDS011;5169;50.560;9.714;2024-03-08T12:10:14;346.70;;;94.83;;
10248;SDS011;5169;50.560;9.714;2024-03-08T12:12:44;349.37;;;101.07;;
10248;SDS011;5169;50.560;9.714;2024-03-08T12:15:24;346.00;;;99.67;;
10248;SDS011;5169;50.560;9.714;2024-03-08T12:17:51;342.90;;;97.33;;
10248;SDS011;5169;50.560;9.714;2024-03-08T12:22:47;343.63;;;96.80;;
10248;SDS011;5169;50.560;9.714;2024-03-08T12:25:15;344.87;;;99.47;;
10248;SDS011;5169;50.560;9.714;2024-03-08T12:27:41;345.77;;;100.97;;
10248;SDS011;5169;50.560;9.714;2024-03-08T12:32:56;347.47;;;100.93;;
10248;SDS011;5169;50.560;9.714;2024-03-08T12:35:24;342.83;;;96.83;;
10248;SDS011;5169;50.560;9.714;2024-03-08T12:37:57;341.27;;;92.93;;
10248;SDS011;5169;50.560;9.714;2024-03-08T12:40:28;342.57;;;92.13;;
10248;SDS011;5169;50.560;9.714;2024-03-08T12:42:56;341.77;;;94.73;;
10248;SDS011;5169;50.560;9.714;2024-03-08T12:45:25;338.03;;;90.53;;
10248;SDS011;5169;50.560;9.714;2024-03-08T12:47:52;336.93;;;88.27;;
10248;SDS011;5169;50.560;9.714;2024-03-08T12:50:24;340.13;;;95.80;;
10248;SDS011;5169;50.560;9.714;2024-03-08T12:52:52;344.00;;;99.70;;
10248;SDS011;5169;50.560;9.714;2024-03-08T12:55:20;338.87;;;93.30;;
10248;SDS011;5169;50.560;9.714;2024-03-08T12:57:46;335.20;;;89.30;;
10248;SDS011;5169;50.560;9.714;2024-03-08T13:00:14;337.87;;;93.97;;
10248;SDS011;5169;50.560;9.714;2024-03-08T13:02:50;334.90;;;91.60;;
10248;SDS011;5169;50.560;9.714;2024-03-08T13:05:21;338.03;;;92.33;;
10248;SDS011;5169;50.560;9.714;2024-03-08T13:07:46;342.90;;;97.50;;
10248;SDS011;5169;50.560;9.714;2024-03-08T13:10:13;341.43;;;100.50;;
10248;SDS011;5169;50.560;9.714;2024-03-08T13:12:40;345.33;;;101.50;;
10248;SDS011;5169;50.560;9.714;2024-03-08T13:15:09;344.07;;;99.23;;
10248;SDS011;5169;50.560;9.714;2024-03-08T13:17:45;337.50;;;93.03;;
10248;SDS011;5169;50.560;9.714;2024-03-08T13:20:13;342.97;;;104.13;;
10248;SDS011;5169;50.560;9.714;2024-03-08T13:22:42;342.47;;;96.13;;
10248;SDS011;5169;50.560;9.714;2024-03-08T13:25:07;338.90;;;91.47;;
10248;SDS011;5169;50.560;9.714;2024-03-08T13:27:38;337.43;;;91.77;;
10248;SDS011;5169;50.560;9.714;2024-03-08T13:30:08;337.60;;;92.53;;
10248;SDS011;5169;50.560;9.714;2024-03-08T13:32:38;334.70;;;89.07;;
10248;SDS011;5169;50.560;9.714;2024-03-08T13:35:10;334.33;;;88.07;;
10248;SDS011;5169;50.560;9.714;2024-03-08T13:37:41;336.27;;;92.43;;
10248;SDS011;5169;50.560;9.714;2024-03-08T13:40:10;338.63;;;94.33;;
10248;SDS011;5169;50.560;9.714;2024-03-08T13:42:42;332.83;;;94.03;;
10248;SDS011;5169;50.560;9.714;2024-03-08T13:45:13;337.30;;;92.20;;
10248;SDS011;5169;50.560;9.714;2024-03-08T13:47:42;339.67;;;97.40;;
10248;SDS011;5169;50.560;9.714;2024-03-08T13:50:11;337.30;;;95.20;;
10248;SDS011;5169;50.560;9.714;2024-03-08T13:52:37;339.97;;;92.93;;
10248;SDS011;5169;50.560;9.714;2024-03-08T13:55:03;334.57;;;86.93;;
10248;SDS011;5169;50.560;9.714;2024-03-08T13:57:32;325.80;;;83.07;;
10248;SDS011;5169;50.560;9.714;2024-03-08T14:00:00;326.33;;;81.70;;
10248;SDS011;5169;50.560;9.714;2024-03-08T14:02:28;322.33;;;77.30;;
10248;SDS011;5169;50.560;9.714;2024-03-08T14:04:58;315.27;;;75.43;;
10248;SDS011;5169;50.560;9.714;2024-03-08T14:07:26;316.43;;;75.93;;
10248;SDS011;5169;50.560;9.714;2024-03-08T14:09:53;313.43;;;75.63;;
10248;SDS011;5169;50.560;9.714;2024-03-08T14:12:19;305.77;;;75.83;;
10248;SDS011;5169;50.560;9.714;2024-03-08T14:14:45;309.23;;;76.43;;
10248;SDS011;5169;50.560;9.714;2024-03-08T14:17:11;313.30;;;75.73;;
10248;SDS011;5169;50.560;9.714;2024-03-08T14:19:41;313.30;;;75.87;;
10248;SDS011;5169;50.560;9.714;2024-03-08T14:22:09;309.80;;;72.87;;
10248;SDS011;5169;50.560;9.714;2024-03-08T14:24:39;311.23;;;75.77;;
10248;SDS011;5169;50.560;9.714;2024-03-08T14:27:13;310.03;;;75.33;;
10248;SDS011;5169;50.560;9.714;2024-03-08T14:29:42;312.73;;;74.63;;
10248;SDS011;5169;50.560;9.714;2024-03-08T14:32:08;307.50;;;75.30;;
10248;SDS011;5169;50.560;9.714;2024-03-08T14:34:39;306.50;;;73.83;;
10248;SDS011;5169;50.560;9.714;2024-03-08T14:37:05;304.60;;;72.33;;
10248;SDS011;5169;50.560;9.714;2024-03-08T14:39:36;305.83;;;74.80;;
10248;SDS011;5169;50.560;9.714;2024-03-08T14:42:04;311.10;;;74.17;;